Time;durP1;ratioP1;P1;durP2;ratioP2;P2;SDS_P1;SDS_P2;PMS_P1;PMS_P2;Temp;Humidity;BMP_temperature;BMP_pressure;BME280_temperature;BME280_humidity;BME280_pressure;Samples;Min_cycle;Max_cycle;Signal;HPM_P1;HPM_P2
2023/03/30 04:33:01;;;;;;;;;1.00;1.00;;;;;15.33;61.04;100598.13;5059851;27;45490;-72
2023/03/30 04:35:28;;;;;;;;;2.00;2.00;;;;;15.28;61.06;100594.91;5060761;28;45386;-74
2023/03/30 04:37:53;;;;;;;;;1.50;1.00;;;;;15.34;61.05;100606.13;5060668;28;45509;-74
2023/03/30 04:40:19;;;;;;;;;1.75;1.75;;;;;15.35;60.84;100610.56;5060399;28;54627;-74
2023/03/30 04:42:48;;;;;;;;;1.25;1.00;;;;;15.22;61.42;100579.97;5060800;28;45277;-73
2023/03/30 04:45:16;;;;;;;;;2.00;2.00;;;;;15.20;61.65;100598.13;5042508;28;45420;-72
2023/03/30 04:47:41;;;;;;;;;2.00;0.00;;;;;14.99;61.60;100562.59;5060262;28;45983;-75
2023/03/30 04:50:08;;;;;;;;;1.00;1.00;;;;;15.19;61.69;100598.22;5060517;28;45339;-72
2023/03/30 04:52:33;;;;;;;;;1.00;1.00;;;;;15.09;61.88;100596.13;5042217;28;45421;-73
2023/03/30 04:54:58;;;;;;;;;2.00;2.00;;;;;15.14;61.49;100610.16;5051396;28;45413;-72
2023/03/30 04:57:24;;;;;;;;;3.25;2.00;;;;;15.04;62.20;100630.69;5069933;28;45453;-74
2023/03/30 04:59:49;;;;;;;;;1.00;0.25;;;;;14.97;62.46;100606.88;5060709;28;45283;-75
2023/03/30 05:02:15;;;;;;;;;0.50;0.50;;;;;14.99;62.69;100623.81;5042157;28;45241;-75
2023/03/30 05:04:41;;;;;;;;;2.00;1.25;;;;;14.98;62.36;100625.66;5043770;28;45355;-75
2023/03/30 05:07:07;;;;;;;;;1.00;1.00;;;;;14.82;62.79;100613.28;5060492;28;45268;-72
2023/03/30 05:09:33;;;;;;;;;2.00;2.00;;;;;14.95;62.47;100617.78;5042794;28;45551;-71
2023/03/30 05:11:58;;;;;;;;;3.00;1.00;;;;;15.01;62.07;100628.16;5060474;28;45277;-76
2023/03/30 05:14:24;;;;;;;;;1.75;1.75;;;;;14.94;62.50;100628.69;5060520;28;45401;-73
2023/03/30 05:16:50;;;;;;;;;1.00;1.00;;;;;14.90;62.37;100619.91;5059782;28;45572;-74
2023/03/30 05:19:16;;;;;;;;;4.75;1.00;;;;;14.89;62.38;100626.25;5042018;28;47441;-75
2023/03/30 05:21:41;;;;;;;;;1.00;1.00;;;;;14.89;62.88;100625.41;5060201;28;45439;-77
2023/03/30 05:24:06;;;;;;;;;2.25;2.25;;;;;14.99;62.55;100653.53;5060337;28;45783;-75
2023/03/30 05:26:32;;;;;;;;;1.00;1.00;;;;;14.91;63.01;100672.06;5060043;28;45380;-74
2023/03/30 05:28:58;;;;;;;;;1.25;1.25;;;;;14.90;62.83;100668.50;5049314;28;47243;-74
2023/03/30 05:31:24;;;;;;;;;1.25;1.25;;;;;14.84;62.94;100655.41;5061406;28;45499;-77
2023/03/30 05:33:51;;;;;;;;;0.50;0.50;;;;;14.84;63.40;100678.81;5066885;28;45470;-76
2023/03/30 05:36:16;;;;;;;;;1.75;0.50;;;;;14.78;63.15;100669.31;5056644;28;45456;-76
2023/03/30 05:38:42;;;;;;;;;1.00;1.00;;;;;14.78;63.30;100680.09;5056491;28;45363;-76
2023/03/30 05:41:07;;;;;;;;;1.00;1.00;;;;;14.82;63.13;100676.22;5056931;28;45524;-76
2023/03/30 05:43:33;;;;;;;;;1.25;1.00;;;;;14.86;63.30;100677.78;5056844;28;45415;-75
2023/03/30 05:45:59;;;;;;;;;2.00;2.00;;;;;14.88;63.02;100680.38;5056467;28;45363;-75
2023/03/30 05:48:25;;;;;;;;;2.00;1.75;;;;;14.86;62.88;100677.78;5056161;28;45433;-74
2023/03/30 05:50:50;;;;;;;;;4.50;2.00;;;;;14.69;63.50;100672.59;5056774;28;45411;-74
2023/03/30 05:53:16;;;;;;;;;3.00;2.00;;;;;14.68;63.64;100678.94;5056342;28;45341;-74
2023/03/30 05:55:45;;;;;;;;;1.75;1.75;;;;;14.67;63.79;100690.69;5069739;28;45499;-76
2023/03/30 05:58:11;;;;;;;;;1.00;1.00;;;;;14.65;63.84;100679.13;5061685;28;46199;-77
2023/03/30 06:00:37;;;;;;;;;1.00;1.00;;;;;14.75;63.48;100678.44;5056311;28;45358;-76
2023/03/30 06:03:03;;;;;;;;;1.25;1.25;;;;;14.67;64.11;100691.56;5056159;28;45379;-76
2023/03/30 06:05:32;;;;;;;;;0.75;0.75;;;;;14.74;63.93;100701.00;5056046;28;45240;-76
2023/03/30 06:07:59;;;;;;;;;3.00;1.75;;;;;14.50;64.50;100683.69;5056157;28;45590;-77
2023/03/30 06:10:25;;;;;;;;;2.25;2.25;;;;;14.57;64.46;100676.06;5056293;28;45304;-75
2023/03/30 06:12:50;;;;;;;;;3.00;1.75;;;;;14.74;64.34;100703.69;5056407;28;45174;-76
2023/03/30 06:15:15;;;;;;;;;2.00;2.00;;;;;14.75;64.09;100691.06;5055932;28;45291;-76
2023/03/30 06:17:41;;;;;;;;;2.00;2.00;;;;;14.77;64.02;100703.53;5055974;28;45957;-77
2023/03/30 06:20:10;;;;;;;;;3.00;1.75;;;;;14.63;64.13;100683.78;5053695;28;45190;-78
2023/03/30 06:22:36;;;;;;;;;2.00;0.00;;;;;14.77;64.18;100722.41;5058341;28;45450;-76
2023/03/30 06:25:01;;;;;;;;;1.50;1.50;;;;;14.77;64.49;100722.41;5076057;28;45246;-75
2023/03/30 06:27:30;;;;;;;;;3.00;2.00;;;;;14.80;63.95;100712.41;5076125;28;46318;-76
2023/03/30 06:29:55;;;;;;;;;1.25;1.25;;;;;14.83;63.84;100720.28;5059446;28;45457;-76
2023/03/30 06:32:21;;;;;;;;;1.75;1.75;;;;;14.82;63.87;100711.31;5055139;28;45359;-76
2023/03/30 06:34:46;;;;;;;;;1.25;1.25;;;;;14.89;63.64;100730.66;5055395;28;45489;-76
2023/03/30 06:37:12;;;;;;;;;0.00;0.00;;;;;14.79;63.53;100705.25;5055791;28;45733;-77
2023/03/30 06:39:37;;;;;;;;;5.50;2.00;;;;;14.89;63.80;100736.06;5055636;28;45349;-77
2023/03/30 06:42:04;;;;;;;;;1.00;1.00;;;;;14.88;63.94;100735.22;5055206;28;45256;-76
2023/03/30 06:44:30;;;;;;;;;3.00;2.00;;;;;14.86;63.61;100734.44;5055555;28;45482;-76
2023/03/30 06:46:56;;;;;;;;;0.00;0.00;;;;;14.83;63.50;100734.63;5037283;28;47263;-75
2023/03/30 06:49:21;;;;;;;;;1.00;1.00;;;;;14.96;63.26;100750.94;5055278;28;45339;-76
2023/03/30 06:51:47;;;;;;;;;1.25;1.25;;;;;14.97;63.09;100747.28;5055637;28;45384;-76
2023/03/30 06:54:12;;;;;;;;;3.00;2.00;;;;;15.01;63.17;100762.28;5064355;28;45477;-78
2023/03/30 06:56:37;;;;;;;;;3.50;2.00;;;;;14.92;62.99;100733.19;5065718;28;45454;-76
2023/03/30 06:59:04;;;;;;;;;1.50;1.50;;;;;14.95;63.17;100741.09;5055308;28;45225;-78
2023/03/30 07:01:29;;;;;;;;;2.00;1.00;;;;;14.96;63.36;100764.44;5055230;28;45537;-76
2023/03/30 07:03:55;;;;;;;;;2.00;2.00;;;;;14.97;63.52;100772.41;5055370;28;45509;-76
2023/03/30 07:06:21;;;;;;;;;2.00;2.00;;;;;14.94;63.41;100775.31;5055409;28;46085;-76
2023/03/30 07:08:47;;;;;;;;;3.00;2.00;;;;;14.93;63.60;100778.97;5055345;28;45229;-77
2023/03/30 07:11:12;;;;;;;;;1.25;1.25;;;;;15.05;63.57;100793.53;5055919;28;45315;-77
2023/03/30 07:13:38;;;;;;;;;1.00;1.00;;;;;15.05;63.49;100790.84;5037002;28;46252;-76
2023/03/30 07:16:03;;;;;;;;;3.50;2.00;;;;;15.01;63.11;100765.88;5055306;28;45689;-77
2023/03/30 07:18:29;;;;;;;;;2.75;2.00;;;;;15.13;63.17;100789.41;5036704;28;45552;-78
2023/03/30 07:20:57;;;;;;;;;1.00;1.00;;;;;15.20;62.83;100786.28;5055315;28;45360;-75
2023/03/30 07:23:22;;;;;;;;;2.00;2.00;;;;;15.20;62.62;100781.75;5055388;28;45479;-76
2023/03/30 07:25:47;;;;;;;;;1.00;1.00;;;;;15.23;62.68;100795.03;5037438;28;48403;-76
2023/03/30 07:28:13;;;;;;;;;1.75;1.75;;;;;15.13;62.73;100792.09;5055132;28;45347;-77
2023/03/30 07:30:38;;;;;;;;;4.00;2.00;;;;;15.15;62.61;100802.78;5055273;28;45366;-77
2023/03/30 07:33:04;;;;;;;;;5.75;2.50;;;;;15.25;62.37;100800.34;5054465;28;45469;-76
2023/03/30 07:35:29;;;;;;;;;6.75;2.00;;;;;15.18;62.26;100794.47;5054650;28;45515;-79
2023/03/30 07:37:55;;;;;;;;;2.00;2.00;;;;;15.12;62.25;100795.75;5054871;28;45246;-76
2023/03/30 07:40:20;;;;;;;;;1.75;1.00;;;;;15.11;61.63;100793.16;5055012;28;45509;-76
2023/03/30 07:42:46;;;;;;;;;1.75;1.75;;;;;15.16;62.09;100820.72;5054406;28;45527;-76
2023/03/30 07:45:13;;;;;;;;;4.25;2.00;;;;;15.13;61.98;100811.00;5054832;28;45287;-76
2023/03/30 07:47:39;;;;;;;;;4.00;1.00;;;;;15.02;61.88;100793.72;5054294;28;45312;-76
2023/03/30 07:50:05;;;;;;;;;4.00;1.00;;;;;15.07;61.70;100788.88;5054712;28;45254;-76
2023/03/30 07:52:31;;;;;;;;;3.50;1.00;;;;;14.94;61.03;100767.22;5053530;28;45319;-76
2023/03/30 07:54:56;;;;;;;;;3.25;0.50;;;;;15.25;61.60;100828.22;5069916;28;45825;-77
2023/03/30 07:57:22;;;;;;;;;4.25;1.50;;;;;15.29;60.67;100823.50;5040679;28;45363;-76
2023/03/30 07:59:48;;;;;;;;;4.25;2.00;;;;;15.39;60.40;100821.97;5054868;28;45332;-76
2023/03/30 08:02:14;;;;;;;;;2.00;2.00;;;;;15.48;60.26;100835.72;5054227;28;45394;-77
2023/03/30 08:04:40;;;;;;;;;0.75;0.75;;;;;15.51;60.05;100830.13;5036052;28;48201;-77
2023/03/30 08:07:06;;;;;;;;;2.25;1.00;;;;;15.32;60.21;100812.50;5036012;28;45265;-76
2023/03/30 08:09:32;;;;;;;;;1.00;1.00;;;;;15.44;59.76;100836.03;5054715;28;45291;-76
2023/03/30 08:11:58;;;;;;;;;2.00;2.00;;;;;15.12;60.06;100784.94;5054143;28;45479;-76
2023/03/30 08:14:26;;;;;;;;;1.75;1.75;;;;;15.55;59.99;100833.53;5036113;28;47129;-75
2023/03/30 08:16:52;;;;;;;;;7.00;3.00;;;;;15.54;59.78;100834.50;5035854;28;45436;-79
2023/03/30 08:19:19;;;;;;;;;1.00;1.00;;;;;15.66;59.68;100841.78;5054602;28;45931;-77
2023/03/30 08:21:44;;;;;;;;;1.50;1.00;;;;;15.59;59.81;100831.50;5039377;28;45592;-76
2023/03/30 08:24:09;;;;;;;;;6.00;3.00;;;;;15.70;59.39;100872.22;5058970;28;46445;-75
2023/03/30 08:26:35;;;;;;;;;1.00;1.00;;;;;15.64;59.50;100859.09;5042108;28;45422;-76
2023/03/30 08:29:01;;;;;;;;;5.50;2.00;;;;;15.56;59.06;100834.41;5042034;28;45244;-79
2023/03/30 08:31:26;;;;;;;;;2.50;1.00;;;;;15.50;59.23;100849.13;5056131;28;45173;-76
2023/03/30 08:33:51;;;;;;;;;2.75;1.00;;;;;15.66;59.10;100867.94;5036600;28;46069;-76
2023/03/30 08:36:19;;;;;;;;;5.00;3.00;;;;;15.68;59.30;100847.09;5054072;28;45334;-78
2023/03/30 08:38:45;;;;;;;;;4.50;2.75;;;;;15.86;59.30;100868.41;5035911;28;45507;-78
2023/03/30 08:41:28;;;;;;;;;2.50;2.00;;;;;15.97;59.25;100862.28;5054055;28;45420;-79
2023/03/30 08:43:59;;;;;;;;;2.50;1.50;;;;;16.04;59.36;100871.72;5054202;28;46242;-77
2023/03/30 08:46:25;;;;;;;;;3.75;2.00;;;;;16.04;58.68;100860.03;5035660;28;45366;-78
2023/03/30 08:48:52;;;;;;;;;2.25;2.00;;;;;16.04;58.24;100866.31;5054071;28;45324;-76
2023/03/30 08:51:32;;;;;;;;;5.00;2.00;;;;;16.14;58.67;100882.81;5053907;28;45493;-77
2023/03/30 08:54:00;;;;;;;;;2.00;2.00;;;;;15.96;58.25;100859.69;5060892;28;45685;-77
2023/03/30 08:56:30;;;;;;;;;1.50;1.00;;;;;16.18;57.63;100887.88;5066185;28;45292;-77
2023/03/30 08:59:11;;;;;;;;;1.75;1.75;;;;;16.13;58.36;100895.47;5053575;28;45414;-77
2023/03/30 09:02:15;;;;;;;;;3.00;2.00;;;;;15.98;58.73;100869.44;5053577;28;45449;-76
2023/03/30 09:04:56;;;;;;;;;2.75;1.00;;;;;16.10;58.83;100881.25;5055649;28;45348;-78
2023/03/30 09:07:25;;;;;;;;;2.50;2.50;;;;;16.13;58.66;100884.63;5056989;28;45564;-76
2023/03/30 09:09:51;;;;;;;;;5.25;2.50;;;;;16.07;58.70;100886.88;5038962;28;45434;-77
2023/03/30 09:12:30;;;;;;;;;2.00;1.25;;;;;16.20;58.56;100890.50;5056970;28;45557;-79
2023/03/30 09:15:02;;;;;;;;;3.00;1.50;;;;;16.20;58.32;100887.78;5056686;28;46171;-75
2023/03/30 09:17:59;;;;;;;;;2.00;2.00;;;;;16.24;58.71;100910.97;5038842;28;45374;-76
2023/03/30 09:20:28;;;;;;;;;6.75;3.75;;;;;16.22;57.93;100899.38;5028748;28;45532;-75
2023/03/30 09:22:57;;;;;;;;;3.00;2.00;;;;;16.29;58.12;100903.41;5057055;28;45640;-76
2023/03/30 09:25:45;;;;;;;;;2.00;2.00;;;;;16.37;58.29;100908.31;5038756;28;48173;-77
2023/03/30 09:28:37;;;;;;;;;2.50;2.00;;;;;16.45;58.03;100900.53;5045709;28;45453;-78
2023/03/30 09:31:10;;;;;;;;;1.00;1.00;;;;;16.40;57.89;100892.75;5063791;28;45264;-78
2023/03/30 09:33:50;;;;;;;;;6.25;2.50;;;;;16.55;57.52;100907.06;5056962;28;45174;-76
2023/03/30 09:36:20;;;;;;;;;4.25;1.00;;;;;16.56;57.34;100881.75;5056700;28;45352;-78
2023/03/30 09:38:46;;;;;;;;;2.25;2.25;;;;;16.75;56.73;100913.88;5056910;28;45487;-76
2023/03/30 09:41:33;;;;;;;;;3.50;2.75;;;;;16.66;56.08;100914.50;5056812;28;45284;-77
2023/03/30 09:43:59;;;;;;;;;2.75;2.75;;;;;16.63;55.85;100912.84;5038574;28;47590;-78
2023/03/30 09:46:24;;;;;;;;;1.50;1.50;;;;;16.56;55.73;100885.31;5056013;28;45369;-75
2023/03/30 09:48:50;;;;;;;;;3.00;1.75;;;;;16.77;55.81;100912.75;5056547;28;45316;-77
2023/03/30 09:51:27;;;;;;;;;4.00;3.00;;;;;16.88;54.60;100907.47;5056884;28;45387;-78
2023/03/30 09:54:05;;;;;;;;;1.00;1.00;;;;;16.94;54.96;100903.47;5044239;28;46353;-75
2023/03/30 09:56:33;;;;;;;;;2.00;0.75;;;;;17.09;54.38;100913.25;5056851;28;45488;-76
2023/03/30 09:59:27;;;;;;;;;2.75;2.75;;;;;17.08;54.66;100891.69;5060532;28;45246;-77
2023/03/30 10:02:16;;;;;;;;;4.75;2.50;;;;;17.22;54.57;100908.69;5056343;28;45502;-77
2023/03/30 10:04:55;;;;;;;;;2.00;2.00;;;;;17.11;54.05;100927.53;5056666;28;45249;-77
2023/03/30 10:07:40;;;;;;;;;3.75;2.00;;;;;16.99;54.52;100928.41;5038408;28;47632;-77
2023/03/30 10:10:26;;;;;;;;;5.00;3.25;;;;;16.96;54.38;100918.66;5038426;28;46031;-76
2023/03/30 10:13:02;;;;;;;;;4.00;1.00;;;;;16.96;54.40;100929.47;5056704;28;45382;-76
2023/03/30 10:15:31;;;;;;;;;9.00;3.00;;;;;16.72;54.79;100911.34;5055255;28;45450;-78
2023/03/30 10:18:02;;;;;;;;;4.00;2.50;;;;;16.80;54.79;100901.72;5056036;28;45693;-77
2023/03/30 10:20:35;;;;;;;;;4.00;2.75;;;;;17.05;54.45;100932.53;5055989;28;45308;-77
2023/03/30 10:23:18;;;;;;;;;2.00;2.00;;;;;17.01;53.06;100910.22;5056413;28;45514;-76
2023/03/30 10:25:48;;;;;;;;;2.75;2.75;;;;;17.21;53.12;100909.66;5030213;28;45452;-77
2023/03/30 10:28:34;;;;;;;;;4.25;2.25;;;;;17.23;52.43;100921.25;5073763;28;46268;-75
2023/03/30 10:31:04;;;;;;;;;5.75;3.00;;;;;17.28;52.72;100915.50;5055424;28;45418;-75
2023/03/30 10:33:30;;;;;;;;;3.00;3.00;;;;;17.21;51.99;100881.69;5037742;28;45439;-77
2023/03/30 10:35:59;;;;;;;;;4.25;3.75;;;;;17.21;51.53;100900.66;5055721;28;45374;-76
2023/03/30 10:38:31;;;;;;;;;8.00;3.75;;;;;17.30;51.82;100921.69;5037734;28;47203;-75
2023/03/30 10:41:01;;;;;;;;;6.00;3.25;;;;;17.18;51.88;100933.41;5055726;28;45386;-76
2023/03/30 10:43:30;;;;;;;;;2.50;2.50;;;;;17.03;52.47;100889.28;5055940;28;45263;-77
2023/03/30 10:46:06;;;;;;;;;5.75;2.00;;;;;17.17;51.78;100900.03;5055519;28;45166;-77
2023/03/30 10:48:59;;;;;;;;;2.00;1.00;;;;;17.20;50.37;100913.34;5055643;28;46621;-76
2023/03/30 10:52:16;;;;;;;;;3.00;1.00;;;;;16.98;50.76;100848.13;5062575;28;45508;-77
2023/03/30 10:54:44;;;;;;;;;3.25;2.00;;;;;17.32;50.86;100855.59;5057309;28;45538;-77
2023/03/30 10:57:14;;;;;;;;;4.25;2.75;;;;;17.46;50.29;100868.13;5061535;28;45721;-76
2023/03/30 10:59:46;;;;;;;;;2.75;2.75;;;;;17.60;50.26;100883.41;5055603;28;45716;-78
2023/03/30 11:02:29;;;;;;;;;5.00;2.50;;;;;17.69;50.13;100889.03;5070134;28;45674;-78
2023/03/30 11:05:08;;;;;;;;;4.00;3.00;;;;;17.86;50.39;100892.38;5075572;28;45403;-78
2023/03/30 11:07:47;;;;;;;;;10.00;3.00;;;;;17.89;49.79;100921.97;5075493;28;45544;-76
2023/03/30 11:10:15;;;;;;;;;4.75;2.25;;;;;17.55;50.27;100883.72;5075811;28;46516;-78
2023/03/30 11:12:46;;;;;;;;;5.00;2.00;;;;;17.83;50.54;100879.91;5075787;28;45407;-78
2023/03/30 11:15:19;;;;;;;;;2.50;2.00;;;;;17.89;49.28;100884.00;5075554;28;45174;-77
2023/03/30 11:18:10;;;;;;;;;6.00;3.00;;;;;18.08;48.89;100906.06;5075688;28;45367;-76
2023/03/30 11:20:44;;;;;;;;;1.75;1.00;;;;;18.10;48.45;100887.84;5075024;28;46727;-76
2023/03/30 11:23:17;;;;;;;;;5.00;2.50;;;;;17.93;47.74;100859.25;5075220;28;45427;-76
2023/03/30 11:26:00;;;;;;;;;2.00;0.00;;;;;18.19;46.90;100889.00;5075339;28;45477;-76
2023/03/30 11:28:52;;;;;;;;;4.00;1.50;;;;;18.35;46.44;100900.41;5074583;28;45341;-76
2023/03/30 11:31:44;;;;;;;;;3.75;1.50;;;;;18.43;45.84;100890.72;5074591;28;46085;-78
2023/03/30 11:34:20;;;;;;;;;4.00;2.00;;;;;18.32;45.73;100865.34;5075085;28;46011;-77
2023/03/30 11:36:56;;;;;;;;;1.00;1.00;;;;;18.32;46.71;100895.22;5075234;28;45468;-79
2023/03/30 11:39:31;;;;;;;;;2.00;2.00;;;;;18.19;47.39;100887.16;5074911;28;45507;-76
2023/03/30 11:42:12;;;;;;;;;2.00;0.00;;;;;18.11;47.61;100887.72;5075261;28;45527;-78
2023/03/30 11:44:37;;;;;;;;;2.00;2.00;;;;;18.09;47.67;100883.38;5075038;28;45256;-77
2023/03/30 11:47:12;;;;;;;;;9.00;3.50;;;;;18.14;48.07;100900.16;5074904;28;45237;-78
2023/03/30 11:49:54;;;;;;;;;7.00;3.00;;;;;18.04;48.03;100901.84;5074897;28;45270;-77
2023/03/30 11:53:32;;;;;;;;;3.00;2.00;;;;;18.01;48.40;100910.22;5056614;28;47114;-76
2023/03/30 11:56:06;;;;;;;;;2.75;2.00;;;;;17.94;49.28;100903.53;4932541;28;45312;-79
2023/03/30 11:59:05;;;;;;;;;1.75;0.25;;;;;17.87;49.04;100903.09;5059467;28;45269;-77
2023/03/30 12:01:44;;;;;;;;;0.00;0.00;;;;;17.88;49.19;100910.25;5054490;28;45676;-79
2023/03/30 12:04:13;;;;;;;;;2.00;2.00;;;;;17.89;49.16;100906.56;5054288;28;45755;-77
2023/03/30 12:06:46;;;;;;;;;4.00;1.00;;;;;17.78;49.29;100871.22;5054607;28;45386;-77
2023/03/30 12:09:51;;;;;;;;;2.00;2.00;;;;;18.34;49.68;100904.97;5054627;28;45379;-79
2023/03/30 12:12:31;;;;;;;;;3.50;2.00;;;;;18.68;49.24;100878.00;4956442;28;45340;-79
2023/03/30 12:15:21;;;;;;;;;2.25;1.25;;;;;19.26;48.33;100871.53;5047494;28;46006;-77
2023/03/30 12:18:10;;;;;;;;;1.00;1.00;;;;;19.68;46.41;100878.13;5035429;28;45286;-78
2023/03/30 12:21:01;;;;;;;;;1.75;1.75;;;;;19.95;46.64;100873.13;5054590;28;45618;-78
2023/03/30 12:23:34;;;;;;;;;2.00;2.00;;;;;20.04;46.27;100852.44;5054270;28;45561;-77
2023/03/30 12:26:09;;;;;;;;;3.75;2.25;;;;;20.46;45.27;100880.66;5054155;28;45497;-78
2023/03/30 12:28:45;;;;;;;;;2.25;2.25;;;;;20.89;44.93;100871.53;5055998;28;45668;-81
2023/03/30 12:31:11;;;;;;;;;4.75;2.25;;;;;21.09;43.69;100868.81;5035743;28;45415;-77
2023/03/30 12:34:04;;;;;;;;;4.00;2.00;;;;;21.38;43.55;100849.00;5035681;28;45587;-77
2023/03/30 12:36:41;;;;;;;;;5.50;1.00;;;;;22.15;41.93;100849.25;5053762;28;46256;-78
2023/03/30 12:39:18;;;;;;;;;2.00;2.00;;;;;22.89;39.94;100836.72;5055304;28;45274;-77
2023/03/30 12:41:49;;;;;;;;;1.50;1.50;;;;;23.53;38.66;100844.19;5058075;28;45253;-79
2023/03/30 12:44:20;;;;;;;;;0.50;0.50;;;;;24.04;36.88;100843.59;5057529;28;45570;-77
2023/03/30 12:47:29;;;;;;;;;3.00;1.50;;;;;24.63;37.00;100833.91;5057322;28;45265;-79
2023/03/30 12:50:14;;;;;;;;;0.75;0.75;;;;;25.11;35.81;100816.09;5049477;28;45525;-78
2023/03/30 12:52:58;;;;;;;;;4.50;2.75;;;;;25.02;34.86;100797.88;5077806;28;45504;-76
2023/03/30 12:55:26;;;;;;;;;0.75;0.00;;;;;25.38;34.43;100829.66;5075361;28;45351;-77
2023/03/30 12:57:57;;;;;;;;;1.50;1.25;;;;;25.02;34.80;100820.69;5058178;28;45249;-79
2023/03/30 13:00:28;;;;;;;;;4.75;0.75;;;;;24.36;35.08;100840.34;5039672;28;45559;-77
2023/03/30 13:03:10;;;;;;;;;2.75;1.25;;;;;24.61;35.52;100829.59;5065884;28;45334;-78
2023/03/30 13:05:40;;;;;;;;;0.50;0.50;;;;;25.19;34.74;100795.06;5077866;28;45589;-77
2023/03/30 13:08:15;;;;;;;;;0.00;0.00;;;;;26.18;34.63;100813.66;5059383;28;47749;-77
2023/03/30 13:10:41;;;;;;;;;3.50;1.00;;;;;27.37;32.94;100798.28;5077500;28;45473;-78
2023/03/30 13:13:20;;;;;;;;;1.00;1.00;;;;;27.36;31.65;100774.53;5078275;28;45503;-77
2023/03/30 13:15:49;;;;;;;;;3.25;2.00;;;;;27.69;32.32;100802.81;5059132;28;45467;-79
2023/03/30 13:18:15;;;;;;;;;0.00;0.00;;;;;26.82;32.00;100804.56;5077350;28;46018;-78
2023/03/30 13:20:46;;;;;;;;;1.25;1.25;;;;;26.58;33.42;100819.19;5077760;28;45692;-78
2023/03/30 13:23:11;;;;;;;;;4.25;0.50;;;;;27.00;32.85;100805.25;5077579;28;45370;-79
2023/03/30 13:26:02;;;;;;;;;3.25;1.00;;;;;27.04;32.74;100814.03;5077890;28;45520;-77
2023/03/30 13:28:54;;;;;;;;;1.00;1.00;;;;;26.50;31.95;100783.47;5072828;28;46234;-78
2023/03/30 13:31:57;;;;;;;;;1.25;1.00;;;;;26.14;33.32;100795.75;5056461;28;45486;-77
2023/03/30 13:34:29;;;;;;;;;1.00;0.00;;;;;25.59;33.69;100804.56;5057027;28;45387;-77
2023/03/30 13:37:23;;;;;;;;;1.50;0.00;;;;;25.44;34.28;100795.19;5064359;28;45459;-78
2023/03/30 13:40:07;;;;;;;;;1.00;1.00;;;;;25.71;34.22;100785.88;5058594;28;46504;-78
2023/03/30 13:43:22;;;;;;;;;0.00;0.00;;;;;26.53;33.18;100794.13;5077006;28;45646;-77
2023/03/30 13:45:59;;;;;;;;;3.00;1.50;;;;;26.83;32.45;100773.28;5014689;28;45407;-78
2023/03/30 13:48:44;;;;;;;;;1.50;1.50;;;;;27.14;31.40;100769.81;5074533;28;45706;-78
2023/03/30 13:51:17;;;;;;;;;2.75;0.00;;;;;27.43;30.87;100761.75;5058026;28;45481;-78
2023/03/30 13:53:49;;;;;;;;;1.75;0.25;;;;;27.79;30.47;100745.59;5043495;28;45355;-75
2023/03/30 13:56:15;;;;;;;;;1.00;0.00;;;;;27.94;30.67;100762.19;5052360;28;45500;-78
2023/03/30 13:58:49;;;;;;;;;0.75;0.00;;;;;28.33;29.40;100738.16;5056245;28;45293;-77
2023/03/30 14:01:20;;;;;;;;;1.75;0.50;;;;;28.90;29.86;100743.16;5063890;28;45281;-78
2023/03/30 14:03:57;;;;;;;;;2.25;0.75;;;;;28.66;28.88;100737.88;5076385;28;45373;-77
2023/03/30 14:06:25;;;;;;;;;2.75;0.25;;;;;28.71;28.91;100733.50;5076679;28;45307;-76
2023/03/30 14:09:04;;;;;;;;;1.00;1.00;;;;;28.55;28.77;100739.16;5076266;28;45416;-76
2023/03/30 14:11:44;;;;;;;;;1.00;0.00;;;;;28.19;28.40;100766.53;5076369;28;45406;-79
2023/03/30 14:14:21;;;;;;;;;0.00;0.00;;;;;27.78;29.65;100744.75;5076597;28;45269;-76
2023/03/30 14:16:48;;;;;;;;;0.25;0.25;;;;;27.14;30.59;100739.53;5076155;28;45369;-78
2023/03/30 14:19:22;;;;;;;;;1.00;1.00;;;;;26.85;31.53;100765.72;5076607;28;45241;-77
2023/03/30 14:21:52;;;;;;;;;0.50;0.00;;;;;26.64;32.11;100765.38;5076394;28;45508;-77
2023/03/30 14:24:27;;;;;;;;;0.50;0.25;;;;;25.92;32.14;100745.09;5076646;28;45276;-79
2023/03/30 14:27:00;;;;;;;;;0.00;0.00;;;;;25.20;34.11;100747.41;5076743;28;45448;-77
2023/03/30 14:29:29;;;;;;;;;2.50;0.00;;;;;24.85;34.62;100755.75;5063690;28;45426;-78
2023/03/30 14:31:54;;;;;;;;;1.50;0.00;;;;;24.01;35.57;100774.56;5055116;28;45329;-77
2023/03/30 14:34:23;;;;;;;;;0.75;0.75;;;;;23.46;36.57;100755.47;5055799;28;45254;-77
2023/03/30 14:36:49;;;;;;;;;1.50;0.00;;;;;22.88;37.69;100746.69;5038359;28;45422;-76
2023/03/30 14:39:18;;;;;;;;;1.25;0.00;;;;;22.90;38.40;100753.69;5055840;28;45223;-77
2023/03/30 14:41:44;;;;;;;;;0.75;0.75;;;;;22.90;38.73;100734.56;5038031;28;47230;-78
2023/03/30 14:44:12;;;;;;;;;3.00;1.00;;;;;22.91;38.88;100744.50;5037434;28;45261;-79
2023/03/30 14:46:45;;;;;;;;;2.00;2.00;;;;;22.28;39.83;100743.34;5021154;28;45412;-78
2023/03/30 14:49:18;;;;;;;;;2.25;0.50;;;;;22.18;40.48;100756.13;5055529;28;45379;-79
2023/03/30 14:51:49;;;;;;;;;1.00;1.00;;;;;21.77;41.77;100770.88;5037341;28;46406;-78
2023/03/30 14:54:20;;;;;;;;;1.25;1.25;;;;;21.55;42.55;100777.44;5046653;28;45780;-76
2023/03/30 14:56:52;;;;;;;;;1.00;1.00;;;;;21.07;49.58;100759.03;5047212;28;45589;-77
2023/03/30 14:59:18;;;;;;;;;3.00;1.00;;;;;20.70;48.44;100764.13;5055687;28;45238;-77
2023/03/30 15:01:44;;;;;;;;;2.25;0.75;;;;;20.36;50.25;100717.19;5054898;28;45643;-76
2023/03/30 15:04:13;;;;;;;;;4.50;1.25;;;;;20.86;50.56;100762.78;5073261;28;45414;-78
2023/03/30 15:06:39;;;;;;;;;4.00;1.00;;;;;21.16;49.01;100727.34;5076093;28;45456;-77
2023/03/30 15:09:22;;;;;;;;;2.00;2.00;;;;;21.81;46.98;100728.63;5075745;28;45523;-76
2023/03/30 15:11:55;;;;;;;;;2.00;1.00;;;;;22.10;45.79;100735.00;5075274;28;46093;-75
2023/03/30 15:14:21;;;;;;;;;4.00;1.00;;;;;22.41;44.09;100743.88;5075590;28;45321;-76
2023/03/30 15:16:52;;;;;;;;;2.00;1.00;;;;;22.99;44.03;100730.06;5075065;28;45514;-77
2023/03/30 15:19:27;;;;;;;;;1.75;1.25;;;;;23.47;42.71;100728.97;5075243;28;46228;-76
2023/03/30 15:21:58;;;;;;;;;2.75;2.75;;;;;23.93;42.01;100730.66;5075289;28;45357;-77
2023/03/30 15:24:29;;;;;;;;;1.50;1.50;;;;;24.23;41.54;100724.81;5075320;28;45362;-77
2023/03/30 15:26:57;;;;;;;;;4.25;0.50;;;;;24.66;40.65;100693.78;5057241;28;45601;-81
2023/03/30 15:29:24;;;;;;;;;0.50;0.50;;;;;25.03;39.31;100695.34;5074847;28;45359;-76
2023/03/30 15:32:08;;;;;;;;;3.00;2.00;;;;;24.93;39.26;100703.72;5074709;28;45337;-77
2023/03/30 15:34:34;;;;;;;;;0.00;0.00;;;;;24.82;38.41;100680.16;5074482;28;45331;-78
2023/03/30 15:36:59;;;;;;;;;0.25;0.25;;;;;24.62;38.46;100673.19;5068309;28;45489;-79
2023/03/30 15:39:32;;;;;;;;;0.50;0.50;;;;;24.08;38.42;100668.81;5055242;28;45529;-77
2023/03/30 15:42:05;;;;;;;;;2.00;0.50;;;;;23.43;38.45;100670.94;5057282;28;47057;-76
2023/03/30 15:44:36;;;;;;;;;0.00;0.00;;;;;22.89;38.98;100660.88;5075338;28;45484;-79
2023/03/30 15:47:05;;;;;;;;;0.00;0.00;;;;;22.67;38.79;100637.53;5075142;28;45252;-78
2023/03/30 15:49:42;;;;;;;;;0.50;0.00;;;;;22.82;39.56;100648.84;5074574;28;45279;-77
2023/03/30 15:52:15;;;;;;;;;2.25;1.25;;;;;22.60;38.74;100667.34;5074571;28;46103;-77
2023/03/30 15:54:52;;;;;;;;;0.50;0.50;;;;;22.39;39.34;100649.41;5074386;28;45328;-76
2023/03/30 15:57:23;;;;;;;;;0.75;0.75;;;;;22.24;39.95;100657.22;5059421;28;45392;-77
2023/03/30 16:00:00;;;;;;;;;0.25;0.25;;;;;21.85;40.43;100660.00;5036434;28;45222;-77
2023/03/30 16:02:31;;;;;;;;;0.50;0.50;;;;;21.61;41.04;100669.59;5053912;28;46060;-74
2023/03/30 16:04:57;;;;;;;;;2.00;0.50;;;;;21.18;41.42;100664.53;5054185;28;45460;-77
2023/03/30 16:07:24;;;;;;;;;3.25;1.00;;;;;21.02;41.40;100646.78;5053991;28;45403;-76
2023/03/30 16:09:50;;;;;;;;;1.25;0.00;;;;;20.82;42.48;100655.94;5035995;28;46781;-76
2023/03/30 16:12:18;;;;;;;;;3.00;2.00;;;;;20.67;42.73;100670.94;5035842;28;48457;-76
2023/03/30 16:14:46;;;;;;;;;1.00;0.00;;;;;20.60;42.59;100659.69;5053672;28;45450;-77
2023/03/30 16:17:14;;;;;;;;;2.00;1.00;;;;;20.36;43.14;100630.06;5036624;28;45374;-78
2023/03/30 16:19:40;;;;;;;;;4.00;2.00;;;;;20.34;43.92;100640.22;5035904;28;47174;-77